sensor_id;sensor_type;location;lat;lon;timestamp;temperature;humidity
2008;DHT22;47741;52.306;8.904;2022-07-23T00:02:39;16.30;99.90
2008;DHT22;47741;52.306;8.904;2022-07-23T00:05:25;16.50;99.90
2008;DHT22;47741;52.306;8.904;2022-07-23T00:08:11;16.40;99.90
2008;DHT22;47741;52.306;8.904;2022-07-23T00:11:00;16.40;99.90
2008;DHT22;47741;52.306;8.904;2022-07-23T00:13:48;16.30;99.90
2008;DHT22;47741;52.306;8.904;2022-07-23T00:16:34;16.30;99.90
2008;DHT22;47741;52.306;8.904;2022-07-23T00:19:20;16.60;99.90
2008;DHT22;47741;52.306;8.904;2022-07-23T00:22:09;16.60;99.90
2008;DHT22;47741;52.306;8.904;2022-07-23T00:24:57;16.50;99.90
2008;DHT22;47741;52.306;8.904;2022-07-23T00:27:43;16.60;99.90
2008;DHT22;47741;52.306;8.904;2022-07-23T00:30:32;16.60;99.90
2008;DHT22;47741;52.306;8.904;2022-07-23T00:33:18;16.50;99.90
2008;DHT22;47741;52.306;8.904;2022-07-23T00:36:06;16.50;99.90
2008;DHT22;47741;52.306;8.904;2022-07-23T00:38:55;16.50;99.90
2008;DHT22;47741;52.306;8.904;2022-07-23T00:41:42;16.50;99.90
2008;DHT22;47741;52.306;8.904;2022-07-23T00:44:28;16.90;99.90
2008;DHT22;47741;52.306;8.904;2022-07-23T00:47:14;16.80;99.90
2008;DHT22;47741;52.306;8.904;2022-07-23T00:50:02;16.80;99.90
2008;DHT22;47741;52.306;8.904;2022-07-23T00:52:49;16.90;99.90
2008;DHT22;47741;52.306;8.904;2022-07-23T00:55:36;17.20;99.90
2008;DHT22;47741;52.306;8.904;2022-07-23T00:58:22;17.30;99.90
2008;DHT22;47741;52.306;8.904;2022-07-23T01:01:11;17.20;99.90
2008;DHT22;47741;52.306;8.904;2022-07-23T01:03:57;17.20;99.90
2008;DHT22;47741;52.306;8.904;2022-07-23T01:06:43;17.20;99.90
2008;DHT22;47741;52.306;8.904;2022-07-23T01:09:32;17.20;99.90
2008;DHT22;47741;52.306;8.904;2022-07-23T01:12:21;17.00;99.90
2008;DHT22;47741;52.306;8.904;2022-07-23T01:15:07;17.10;99.90
2008;DHT22;47741;52.306;8.904;2022-07-23T01:17:53;17.00;99.90
2008;DHT22;47741;52.306;8.904;2022-07-23T01:20:39;17.10;99.90
2008;DHT22;47741;52.306;8.904;2022-07-23T01:23:25;17.00;99.90
2008;DHT22;47741;52.306;8.904;2022-07-23T01:26:11;17.00;99.90
2008;DHT22;47741;52.306;8.904;2022-07-23T01:28:57;16.90;99.90
2008;DHT22;47741;52.306;8.904;2022-07-23T01:31:43;16.80;99.90
2008;DHT22;47741;52.306;8.904;2022-07-23T01:34:29;16.80;99.90
2008;DHT22;47741;52.306;8.904;2022-07-23T01:37:15;17.00;99.90
2008;DHT22;47741;52.306;8.904;2022-07-23T01:40:01;17.30;99.90
2008;DHT22;47741;52.306;8.904;2022-07-23T01:42:47;17.10;99.90
2008;DHT22;47741;52.306;8.904;2022-07-23T01:45:33;17.20;99.90
2008;DHT22;47741;52.306;8.904;2022-07-23T01:48:19;17.10;99.90
2008;DHT22;47741;52.306;8.904;2022-07-23T01:51:07;17.00;99.90
2008;DHT22;47741;52.306;8.904;2022-07-23T01:53:55;17.00;99.90
2008;DHT22;47741;52.306;8.904;2022-07-23T01:56:42;17.00;99.90
2008;DHT22;47741;52.306;8.904;2022-07-23T01:59:30;16.90;99.90
2008;DHT22;47741;52.306;8.904;2022-07-23T02:02:17;16.90;99.90
2008;DHT22;47741;52.306;8.904;2022-07-23T02:05:06;17.00;99.90
2008;DHT22;47741;52.306;8.904;2022-07-23T02:07:52;16.90;99.90
2008;DHT22;47741;52.306;8.904;2022-07-23T02:10:40;16.90;99.90
2008;DHT22;47741;52.306;8.904;2022-07-23T02:13:26;17.10;99.90
2008;DHT22;47741;52.306;8.904;2022-07-23T02:16:12;17.10;99.90
2008;DHT22;47741;52.306;8.904;2022-07-23T02:18:57;17.40;99.90
2008;DHT22;47741;52.306;8.904;2022-07-23T02:21:43;17.30;99.90
2008;DHT22;47741;52.306;8.904;2022-07-23T02:24:29;17.40;99.90
2008;DHT22;47741;52.306;8.904;2022-07-23T02:27:15;17.20;99.90
2008;DHT22;47741;52.306;8.904;2022-07-23T02:30:02;17.30;99.90
2008;DHT22;47741;52.306;8.904;2022-07-23T02:32:50;17.40;99.90
2008;DHT22;47741;52.306;8.904;2022-07-23T02:35:39;17.40;99.90
2008;DHT22;47741;52.306;8.904;2022-07-23T02:38:25;17.20;99.90
2008;DHT22;47741;52.306;8.904;2022-07-23T02:41:11;17.00;99.90
2008;DHT22;47741;52.306;8.904;2022-07-23T02:43:57;16.80;99.90
2008;DHT22;47741;52.306;8.904;2022-07-23T02:46:43;17.30;99.90
2008;DHT22;47741;52.306;8.904;2022-07-23T02:49:29;17.30;99.90
2008;DHT22;47741;52.306;8.904;2022-07-23T02:52:15;17.10;99.90
2008;DHT22;47741;52.306;8.904;2022-07-23T02:55:03;17.00;99.90
2008;DHT22;47741;52.306;8.904;2022-07-23T02:57:49;17.00;99.90
2008;DHT22;47741;52.306;8.904;2022-07-23T03:00:35;17.00;99.90
2008;DHT22;47741;52.306;8.904;2022-07-23T03:03:21;16.70;99.90
2008;DHT22;47741;52.306;8.904;2022-07-23T03:06:07;16.40;99.90
2008;DHT22;47741;52.306;8.904;2022-07-23T03:08:53;16.60;99.90
2008;DHT22;47741;52.306;8.904;2022-07-23T03:11:41;16.90;99.90
2008;DHT22;47741;52.306;8.904;2022-07-23T03:14:27;17.00;99.90
2008;DHT22;47741;52.306;8.904;2022-07-23T03:17:13;17.00;99.90
2008;DHT22;47741;52.306;8.904;2022-07-23T03:20:04;16.70;99.90
2008;DHT22;47741;52.306;8.904;2022-07-23T03:22:51;16.90;99.90
2008;DHT22;47741;52.306;8.904;2022-07-23T03:25:37;16.80;99.90
2008;DHT22;47741;52.306;8.904;2022-07-23T03:28:23;16.70;99.90
2008;DHT22;47741;52.306;8.904;2022-07-23T03:31:11;16.60;99.90
2008;DHT22;47741;52.306;8.904;2022-07-23T03:33:57;16.70;99.90
2008;DHT22;47741;52.306;8.904;2022-07-23T03:36:43;16.60;99.90
2008;DHT22;47741;52.306;8.904;2022-07-23T03:39:32;16.70;99.90
2008;DHT22;47741;52.306;8.904;2022-07-23T03:42:18;16.80;99.90
2008;DHT22;47741;52.306;8.904;2022-07-23T03:45:04;16.90;99.90
2008;DHT22;47741;52.306;8.904;2022-07-23T03:47:50;16.90;99.90
2008;DHT22;47741;52.306;8.904;2022-07-23T03:50:36;16.70;99.90
2008;DHT22;47741;52.306;8.904;2022-07-23T03:53:23;16.90;99.90
2008;DHT22;47741;52.306;8.904;2022-07-23T03:56:08;17.00;99.90
2008;DHT22;47741;52.306;8.904;2022-07-23T03:58:54;17.00;99.90
2008;DHT22;47741;52.306;8.904;2022-07-23T04:01:40;17.10;99.90
2008;DHT22;47741;52.306;8.904;2022-07-23T04:04:26;17.30;99.90
2008;DHT22;47741;52.306;8.904;2022-07-23T04:07:13;17.20;99.90
2008;DHT22;47741;52.306;8.904;2022-07-23T04:09:59;17.00;99.90
2008;DHT22;47741;52.306;8.904;2022-07-23T04:12:45;16.80;99.90
2008;DHT22;47741;52.306;8.904;2022-07-23T04:15:31;17.00;99.90
2008;DHT22;47741;52.306;8.904;2022-07-23T04:18:17;17.00;99.90
2008;DHT22;47741;52.306;8.904;2022-07-23T04:21:07;17.00;99.90
2008;DHT22;47741;52.306;8.904;2022-07-23T04:23:53;17.10;99.90
2008;DHT22;47741;52.306;8.904;2022-07-23T04:26:39;16.90;99.90
2008;DHT22;47741;52.306;8.904;2022-07-23T04:29:25;16.70;99.90
2008;DHT22;47741;52.306;8.904;2022-07-23T04:32:11;16.70;99.90
2008;DHT22;47741;52.306;8.904;2022-07-23T04:34:57;16.90;99.90
2008;DHT22;47741;52.306;8.904;2022-07-23T04:37:43;16.90;99.90
2008;DHT22;47741;52.306;8.904;2022-07-23T04:40:29;16.90;99.90
2008;DHT22;47741;52.306;8.904;2022-07-23T04:43:15;16.80;99.90
2008;DHT22;47741;52.306;8.904;2022-07-23T04:46:01;16.70;99.90
2008;DHT22;47741;52.306;8.904;2022-07-23T04:48:47;16.20;99.90
2008;DHT22;47741;52.306;8.904;2022-07-23T04:51:35;17.00;99.90
2008;DHT22;47741;52.306;8.904;2022-07-23T04:54:21;16.70;99.90
2008;DHT22;47741;52.306;8.904;2022-07-23T04:57:07;16.90;99.90
2008;DHT22;47741;52.306;8.904;2022-07-23T04:59:53;16.90;99.90
2008;DHT22;47741;52.306;8.904;2022-07-23T05:02:41;16.90;99.90
2008;DHT22;47741;52.306;8.904;2022-07-23T05:05:27;16.80;99.90
2008;DHT22;47741;52.306;8.904;2022-07-23T05:08:13;16.70;99.90
2008;DHT22;47741;52.306;8.904;2022-07-23T05:10:59;16.80;99.90
2008;DHT22;47741;52.306;8.904;2022-07-23T05:13:45;16.80;99.90
2008;DHT22;47741;52.306;8.904;2022-07-23T05:16:31;17.00;99.90
2008;DHT22;47741;52.306;8.904;2022-07-23T05:19:17;17.10;99.90
2008;DHT22;47741;52.306;8.904;2022-07-23T05:22:03;16.80;99.90
2008;DHT22;47741;52.306;8.904;2022-07-23T05:24:49;17.00;99.90
2008;DHT22;47741;52.306;8.904;2022-07-23T05:27:35;17.00;99.90
2008;DHT22;47741;52.306;8.904;2022-07-23T05:30:21;17.20;99.90
2008;DHT22;47741;52.306;8.904;2022-07-23T05:33:07;17.30;99.90
2008;DHT22;47741;52.306;8.904;2022-07-23T05:35:54;17.30;99.90
2008;DHT22;47741;52.306;8.904;2022-07-23T05:38:40;17.30;99.90
2008;DHT22;47741;52.306;8.904;2022-07-23T05:41:28;17.40;99.90
2008;DHT22;47741;52.306;8.904;2022-07-23T05:44:17;17.40;99.90
2008;DHT22;47741;52.306;8.904;2022-07-23T05:47:03;17.40;99.90
2008;DHT22;47741;52.306;8.904;2022-07-23T05:49:51;17.50;99.90
2008;DHT22;47741;52.306;8.904;2022-07-23T05:52:44;17.70;99.90
2008;DHT22;47741;52.306;8.904;2022-07-23T05:55:30;17.90;99.90
2008;DHT22;47741;52.306;8.904;2022-07-23T05:58:17;17.90;99.90
2008;DHT22;47741;52.306;8.904;2022-07-23T06:01:06;18.10;99.90
2008;DHT22;47741;52.306;8.904;2022-07-23T06:03:52;18.30;99.90
2008;DHT22;47741;52.306;8.904;2022-07-23T06:06:43;18.50;99.90
2008;DHT22;47741;52.306;8.904;2022-07-23T06:09:29;18.40;99.90
2008;DHT22;47741;52.306;8.904;2022-07-23T06:12:16;18.20;99.90
2008;DHT22;47741;52.306;8.904;2022-07-23T06:15:02;18.10;99.90
2008;DHT22;47741;52.306;8.904;2022-07-23T06:17:48;18.20;99.90
2008;DHT22;47741;52.306;8.904;2022-07-23T06:20:34;18.40;99.90
2008;DHT22;47741;52.306;8.904;2022-07-23T06:23:20;18.20;99.90
2008;DHT22;47741;52.306;8.904;2022-07-23T06:26:09;18.20;99.90
2008;DHT22;47741;52.306;8.904;2022-07-23T06:28:55;18.10;99.90
2008;DHT22;47741;52.306;8.904;2022-07-23T06:31:40;18.50;99.90
2008;DHT22;47741;52.306;8.904;2022-07-23T06:34:26;18.80;99.90
2008;DHT22;47741;52.306;8.904;2022-07-23T06:37:15;18.90;99.90
2008;DHT22;47741;52.306;8.904;2022-07-23T06:40:02;18.90;99.90
2008;DHT22;47741;52.306;8.904;2022-07-23T06:42:51;18.50;99.90
2008;DHT22;47741;52.306;8.904;2022-07-23T06:45:37;18.80;99.90
2008;DHT22;47741;52.306;8.904;2022-07-23T06:48:23;18.70;99.90
2008;DHT22;47741;52.306;8.904;2022-07-23T06:51:09;18.90;99.90
2008;DHT22;47741;52.306;8.904;2022-07-23T06:53:55;18.70;99.90
2008;DHT22;47741;52.306;8.904;2022-07-23T06:56:41;18.90;99.90
2008;DHT22;47741;52.306;8.904;2022-07-23T06:59:28;19.00;99.90
2008;DHT22;47741;52.306;8.904;2022-07-23T07:02:17;19.30;99.90
2008;DHT22;47741;52.306;8.904;2022-07-23T07:05:05;18.80;99.90
2008;DHT22;47741;52.306;8.904;2022-07-23T07:07:51;18.90;99.90
2008;DHT22;47741;52.306;8.904;2022-07-23T07:10:39;18.90;99.90
2008;DHT22;47741;52.306;8.904;2022-07-23T07:13:28;19.30;99.90
2008;DHT22;47741;52.306;8.904;2022-07-23T07:16:14;19.80;99.90
2008;DHT22;47741;52.306;8.904;2022-07-23T07:19:00;20.00;99.90
2008;DHT22;47741;52.306;8.904;2022-07-23T07:21:46;20.40;99.90
2008;DHT22;47741;52.306;8.904;2022-07-23T07:24:32;20.60;99.90
2008;DHT22;47741;52.306;8.904;2022-07-23T07:27:20;20.50;99.90
2008;DHT22;47741;52.306;8.904;2022-07-23T07:30:10;21.00;99.90
2008;DHT22;47741;52.306;8.904;2022-07-23T07:32:56;21.00;99.90
2008;DHT22;47741;52.306;8.904;2022-07-23T07:35:42;21.30;99.90
2008;DHT22;47741;52.306;8.904;2022-07-23T07:38:28;21.20;99.90
2008;DHT22;47741;52.306;8.904;2022-07-23T07:41:14;20.50;99.90
2008;DHT22;47741;52.306;8.904;2022-07-23T07:44:08;20.70;99.90
2008;DHT22;47741;52.306;8.904;2022-07-23T07:46:54;21.00;99.90
2008;DHT22;47741;52.306;8.904;2022-07-23T07:49:40;20.80;99.90
2008;DHT22;47741;52.306;8.904;2022-07-23T07:52:26;20.80;99.90
2008;DHT22;47741;52.306;8.904;2022-07-23T07:55:12;20.70;99.90
2008;DHT22;47741;52.306;8.904;2022-07-23T07:58:01;21.40;99.90
2008;DHT22;47741;52.306;8.904;2022-07-23T08:00:47;21.30;99.90
2008;DHT22;47741;52.306;8.904;2022-07-23T08:03:33;21.30;99.90
2008;DHT22;47741;52.306;8.904;2022-07-23T08:06:19;21.60;99.90
2008;DHT22;47741;52.306;8.904;2022-07-23T08:09:05;21.90;99.90
2008;DHT22;47741;52.306;8.904;2022-07-23T08:11:51;21.90;99.90
2008;DHT22;47741;52.306;8.904;2022-07-23T08:14:37;21.50;99.90
2008;DHT22;47741;52.306;8.904;2022-07-23T08:17:23;21.40;99.90
2008;DHT22;47741;52.306;8.904;2022-07-23T08:20:10;21.30;99.90
2008;DHT22;47741;52.306;8.904;2022-07-23T08:23:03;21.20;99.90
2008;DHT22;47741;52.306;8.904;2022-07-23T08:25:50;21.70;99.90
2008;DHT22;47741;52.306;8.904;2022-07-23T08:28:36;22.20;99.90
2008;DHT22;47741;52.306;8.904;2022-07-23T08:31:22;21.80;99.90
2008;DHT22;47741;52.306;8.904;2022-07-23T08:34:08;21.50;99.90
2008;DHT22;47741;52.306;8.904;2022-07-23T08:36:54;21.70;99.90
2008;DHT22;47741;52.306;8.904;2022-07-23T08:39:40;21.70;99.90
2008;DHT22;47741;52.306;8.904;2022-07-23T08:42:26;21.30;99.90
2008;DHT22;47741;52.306;8.904;2022-07-23T08:45:20;21.70;99.90
2008;DHT22;47741;52.306;8.904;2022-07-23T08:48:08;22.10;99.90
2008;DHT22;47741;52.306;8.904;2022-07-23T08:50:59;22.50;99.90
2008;DHT22;47741;52.306;8.904;2022-07-23T08:53:47;22.90;99.90
2008;DHT22;47741;52.306;8.904;2022-07-23T08:56:35;22.80;99.90
2008;DHT22;47741;52.306;8.904;2022-07-23T08:59:21;22.90;99.90
2008;DHT22;47741;52.306;8.904;2022-07-23T09:02:07;22.80;99.90
2008;DHT22;47741;52.306;8.904;2022-07-23T09:04:56;22.50;99.90
2008;DHT22;47741;52.306;8.904;2022-07-23T09:10:59;22.40;99.90
2008;DHT22;47741;52.306;8.904;2022-07-23T09:13:53;21.80;99.90
2008;DHT22;47741;52.306;8.904;2022-07-23T09:16:40;22.30;99.90
2008;DHT22;47741;52.306;8.904;2022-07-23T09:19:29;21.80;99.90
2008;DHT22;47741;52.306;8.904;2022-07-23T09:22:25;21.60;99.90
2008;DHT22;47741;52.306;8.904;2022-07-23T09:25:16;21.40;99.90
2008;DHT22;47741;52.306;8.904;2022-07-23T09:28:03;21.80;99.90
2008;DHT22;47741;52.306;8.904;2022-07-23T09:30:50;22.40;99.90
2008;DHT22;47741;52.306;8.904;2022-07-23T09:33:38;22.40;99.90
2008;DHT22;47741;52.306;8.904;2022-07-23T09:36:28;22.60;99.90
2008;DHT22;47741;52.306;8.904;2022-07-23T09:39:15;22.40;99.90
2008;DHT22;47741;52.306;8.904;2022-07-23T09:42:17;22.30;99.90
2008;DHT22;47741;52.306;8.904;2022-07-23T09:45:04;22.10;99.90
2008;DHT22;47741;52.306;8.904;2022-07-23T09:48:17;21.90;99.90
2008;DHT22;47741;52.306;8.904;2022-07-23T09:51:03;21.80;99.90
2008;DHT22;47741;52.306;8.904;2022-07-23T09:53:51;21.90;99.90
2008;DHT22;47741;52.306;8.904;2022-07-23T09:56:37;22.00;99.90
2008;DHT22;47741;52.306;8.904;2022-07-23T09:59:24;22.10;99.90
2008;DHT22;47741;52.306;8.904;2022-07-23T10:02:15;22.20;99.90
2008;DHT22;47741;52.306;8.904;2022-07-23T10:05:02;22.30;99.90
2008;DHT22;47741;52.306;8.904;2022-07-23T10:07:49;22.20;99.90
2008;DHT22;47741;52.306;8.904;2022-07-23T10:10:41;22.40;99.90
2008;DHT22;47741;52.306;8.904;2022-07-23T10:13:27;22.90;99.90
2008;DHT22;47741;52.306;8.904;2022-07-23T10:16:31;23.00;99.90
2008;DHT22;47741;52.306;8.904;2022-07-23T10:19:18;23.30;99.90
2008;DHT22;47741;52.306;8.904;2022-07-23T10:22:06;22.70;99.90
2008;DHT22;47741;52.306;8.904;2022-07-23T10:31:35;23.00;99.90
2008;DHT22;47741;52.306;8.904;2022-07-23T10:42:59;23.30;99.90
2008;DHT22;47741;52.306;8.904;2022-07-23T10:45:46;23.40;99.90
2008;DHT22;47741;52.306;8.904;2022-07-23T10:48:32;23.40;99.90
2008;DHT22;47741;52.306;8.904;2022-07-23T10:51:19;23.80;99.90
2008;DHT22;47741;52.306;8.904;2022-07-23T10:54:05;24.20;99.90
2008;DHT22;47741;52.306;8.904;2022-07-23T10:57:07;24.10;99.90
2008;DHT22;47741;52.306;8.904;2022-07-23T11:02:58;24.40;99.90
2008;DHT22;47741;52.306;8.904;2022-07-23T11:05:47;24.20;99.90
2008;DHT22;47741;52.306;8.904;2022-07-23T11:08:33;24.10;99.90
2008;DHT22;47741;52.306;8.904;2022-07-23T11:11:19;24.10;99.90
2008;DHT22;47741;52.306;8.904;2022-07-23T11:14:05;23.40;99.90
2008;DHT22;47741;52.306;8.904;2022-07-23T11:16:54;23.20;99.90
2008;DHT22;47741;52.306;8.904;2022-07-23T11:22:57;23.70;99.90
2008;DHT22;47741;52.306;8.904;2022-07-23T11:25:44;23.70;99.90
2008;DHT22;47741;52.306;8.904;2022-07-23T11:28:30;23.90;99.90
2008;DHT22;47741;52.306;8.904;2022-07-23T11:31:19;23.70;99.90
2008;DHT22;47741;52.306;8.904;2022-07-23T11:34:24;23.40;99.90
2008;DHT22;47741;52.306;8.904;2022-07-23T11:40:22;23.70;99.90
2008;DHT22;47741;52.306;8.904;2022-07-23T11:43:08;23.90;99.90
2008;DHT22;47741;52.306;8.904;2022-07-23T11:45:59;24.40;99.70
2008;DHT22;47741;52.306;8.904;2022-07-23T11:49:00;24.20;99.70
2008;DHT22;47741;52.306;8.904;2022-07-23T11:51:47;24.30;99.30
2008;DHT22;47741;52.306;8.904;2022-07-23T11:54:33;24.10;99.40
2008;DHT22;47741;52.306;8.904;2022-07-23T11:57:23;23.80;99.50
2008;DHT22;47741;52.306;8.904;2022-07-23T12:00:29;24.60;98.90
2008;DHT22;47741;52.306;8.904;2022-07-23T12:03:16;24.60;98.30
2008;DHT22;47741;52.306;8.904;2022-07-23T12:06:02;24.70;98.50
2008;DHT22;47741;52.306;8.904;2022-07-23T12:08:48;24.70;98.00
2008;DHT22;47741;52.306;8.904;2022-07-23T12:11:34;24.60;98.10
2008;DHT22;47741;52.306;8.904;2022-07-23T12:14:20;24.40;98.20
2008;DHT22;47741;52.306;8.904;2022-07-23T12:17:07;24.20;97.60
2008;DHT22;47741;52.306;8.904;2022-07-23T12:19:54;24.60;98.10
2008;DHT22;47741;52.306;8.904;2022-07-23T12:22:47;24.90;97.60
2008;DHT22;47741;52.306;8.904;2022-07-23T12:25:36;25.70;95.70
2008;DHT22;47741;52.306;8.904;2022-07-23T12:28:28;25.90;95.30
2008;DHT22;47741;52.306;8.904;2022-07-23T12:31:16;25.80;95.40
2008;DHT22;47741;52.306;8.904;2022-07-23T12:34:14;25.80;95.60
2008;DHT22;47741;52.306;8.904;2022-07-23T12:37:01;25.70;95.30
2008;DHT22;47741;52.306;8.904;2022-07-23T12:39:49;25.70;95.10
2008;DHT22;47741;52.306;8.904;2022-07-23T12:42:42;25.20;94.90
2008;DHT22;47741;52.306;8.904;2022-07-23T12:45:41;25.50;95.20
2008;DHT22;47741;52.306;8.904;2022-07-23T12:51:25;25.50;93.90
2008;DHT22;47741;52.306;8.904;2022-07-23T12:54:16;25.60;94.60
2008;DHT22;47741;52.306;8.904;2022-07-23T12:57:04;25.50;94.40
2008;DHT22;47741;52.306;8.904;2022-07-23T12:59:50;25.40;95.00
2008;DHT22;47741;52.306;8.904;2022-07-23T13:02:46;25.80;94.10
2008;DHT22;47741;52.306;8.904;2022-07-23T13:05:34;25.80;93.30
2008;DHT22;47741;52.306;8.904;2022-07-23T13:08:21;25.50;94.10
2008;DHT22;47741;52.306;8.904;2022-07-23T13:11:07;25.50;93.70
2008;DHT22;47741;52.306;8.904;2022-07-23T13:13:58;25.20;93.90
2008;DHT22;47741;52.306;8.904;2022-07-23T13:16:46;24.90;94.40
2008;DHT22;47741;52.306;8.904;2022-07-23T13:19:32;24.70;93.80
2008;DHT22;47741;52.306;8.904;2022-07-23T13:22:18;24.90;94.20
2008;DHT22;47741;52.306;8.904;2022-07-23T13:25:04;25.20;93.90
2008;DHT22;47741;52.306;8.904;2022-07-23T13:27:51;25.50;93.30
2008;DHT22;47741;52.306;8.904;2022-07-23T13:30:37;25.50;93.60
2008;DHT22;47741;52.306;8.904;2022-07-23T13:33:24;25.30;93.30
2008;DHT22;47741;52.306;8.904;2022-07-23T13:36:11;25.40;93.40
2008;DHT22;47741;52.306;8.904;2022-07-23T13:38:57;25.20;92.90
2008;DHT22;47741;52.306;8.904;2022-07-23T13:41:43;25.00;93.30
2008;DHT22;47741;52.306;8.904;2022-07-23T13:44:29;25.50;93.00
2008;DHT22;47741;52.306;8.904;2022-07-23T13:47:18;26.10;92.90
2008;DHT22;47741;52.306;8.904;2022-07-23T13:50:04;26.00;91.90
2008;DHT22;47741;52.306;8.904;2022-07-23T13:52:53;26.30;91.60
2008;DHT22;47741;52.306;8.904;2022-07-23T13:55:40;26.80;90.40
2008;DHT22;47741;52.306;8.904;2022-07-23T13:58:29;28.40;86.10
2008;DHT22;47741;52.306;8.904;2022-07-23T14:01:15;29.00;85.30
2008;DHT22;47741;52.306;8.904;2022-07-23T14:04:01;30.20;82.10
2008;DHT22;47741;52.306;8.904;2022-07-23T14:06:47;31.60;80.60
2008;DHT22;47741;52.306;8.904;2022-07-23T14:09:33;32.20;72.60
2008;DHT22;47741;52.306;8.904;2022-07-23T14:12:19;32.70;70.60
2008;DHT22;47741;52.306;8.904;2022-07-23T14:15:06;33.50;67.20
2008;DHT22;47741;52.306;8.904;2022-07-23T14:17:54;34.10;63.20
2008;DHT22;47741;52.306;8.904;2022-07-23T14:20:40;34.10;61.80
2008;DHT22;47741;52.306;8.904;2022-07-23T14:23:29;34.20;61.00
2008;DHT22;47741;52.306;8.904;2022-07-23T14:26:15;32.70;60.50
2008;DHT22;47741;52.306;8.904;2022-07-23T14:29:01;31.30;65.30
2008;DHT22;47741;52.306;8.904;2022-07-23T14:31:47;31.10;66.30
2008;DHT22;47741;52.306;8.904;2022-07-23T14:34:34;31.50;65.10
2008;DHT22;47741;52.306;8.904;2022-07-23T14:37:23;32.90;62.20
2008;DHT22;47741;52.306;8.904;2022-07-23T14:40:10;32.50;60.80
2008;DHT22;47741;52.306;8.904;2022-07-23T14:43:01;32.10;62.00
2008;DHT22;47741;52.306;8.904;2022-07-23T14:45:47;32.60;61.60
2008;DHT22;47741;52.306;8.904;2022-07-23T14:48:36;32.80;60.70
2008;DHT22;47741;52.306;8.904;2022-07-23T14:51:24;32.80;60.00
2008;DHT22;47741;52.306;8.904;2022-07-23T14:54:15;33.40;59.30
2008;DHT22;47741;52.306;8.904;2022-07-23T14:57:02;33.80;59.40
2008;DHT22;47741;52.306;8.904;2022-07-23T14:59:49;34.10;58.20
2008;DHT22;47741;52.306;8.904;2022-07-23T15:02:37;35.00;57.10
2008;DHT22;47741;52.306;8.904;2022-07-23T15:05:25;35.90;55.90
2008;DHT22;47741;52.306;8.904;2022-07-23T15:08:12;34.40;56.80
2008;DHT22;47741;52.306;8.904;2022-07-23T15:10:58;34.00;57.80
2008;DHT22;47741;52.306;8.904;2022-07-23T15:13:44;34.00;57.00
2008;DHT22;47741;52.306;8.904;2022-07-23T15:16:32;34.90;56.80
2008;DHT22;47741;52.306;8.904;2022-07-23T15:19:18;35.20;55.80
2008;DHT22;47741;52.306;8.904;2022-07-23T15:22:07;35.60;55.10
2008;DHT22;47741;52.306;8.904;2022-07-23T15:24:53;36.20;55.10
2008;DHT22;47741;52.306;8.904;2022-07-23T15:27:39;34.40;55.60
2008;DHT22;47741;52.306;8.904;2022-07-23T15:30:26;33.00;57.30
2008;DHT22;47741;52.306;8.904;2022-07-23T15:33:15;32.20;58.50
2008;DHT22;47741;52.306;8.904;2022-07-23T15:36:03;32.80;57.80
2008;DHT22;47741;52.306;8.904;2022-07-23T15:38:52;33.00;57.50
2008;DHT22;47741;52.306;8.904;2022-07-23T15:41:38;32.80;57.20
2008;DHT22;47741;52.306;8.904;2022-07-23T15:44:24;33.10;57.80
2008;DHT22;47741;52.306;8.904;2022-07-23T15:47:11;33.10;57.80
2008;DHT22;47741;52.306;8.904;2022-07-23T15:49:59;32.30;58.30
2008;DHT22;47741;52.306;8.904;2022-07-23T15:52:45;32.60;58.00
2008;DHT22;47741;52.306;8.904;2022-07-23T15:55:31;33.40;57.00
2008;DHT22;47741;52.306;8.904;2022-07-23T15:58:19;33.90;57.20
2008;DHT22;47741;52.306;8.904;2022-07-23T16:01:05;34.40;56.50
2008;DHT22;47741;52.306;8.904;2022-07-23T16:03:52;34.70;56.00
2008;DHT22;47741;52.306;8.904;2022-07-23T16:06:44;35.30;55.20
2008;DHT22;47741;52.306;8.904;2022-07-23T16:09:30;36.90;54.50
2008;DHT22;47741;52.306;8.904;2022-07-23T16:12:16;36.80;53.30
2008;DHT22;47741;52.306;8.904;2022-07-23T16:15:02;36.50;53.60
2008;DHT22;47741;52.306;8.904;2022-07-23T16:17:49;36.90;53.30
2008;DHT22;47741;52.306;8.904;2022-07-23T16:20:35;37.80;52.50
2008;DHT22;47741;52.306;8.904;2022-07-23T16:23:22;39.20;51.80
2008;DHT22;47741;52.306;8.904;2022-07-23T16:26:08;38.80;52.00
2008;DHT22;47741;52.306;8.904;2022-07-23T16:28:54;37.90;52.00
2008;DHT22;47741;52.306;8.904;2022-07-23T16:31:40;37.20;52.40
2008;DHT22;47741;52.306;8.904;2022-07-23T16:34:28;37.20;52.50
2008;DHT22;47741;52.306;8.904;2022-07-23T16:37:14;38.00;52.00
2008;DHT22;47741;52.306;8.904;2022-07-23T16:40:01;38.80;51.00
2008;DHT22;47741;52.306;8.904;2022-07-23T16:42:48;38.60;50.90
2008;DHT22;47741;52.306;8.904;2022-07-23T16:45:36;37.50;51.40
2008;DHT22;47741;52.306;8.904;2022-07-23T16:48:25;36.90;52.00
2008;DHT22;47741;52.306;8.904;2022-07-23T16:51:11;37.00;51.80
2008;DHT22;47741;52.306;8.904;2022-07-23T16:53:57;37.30;52.30
2008;DHT22;47741;52.306;8.904;2022-07-23T16:56:43;37.10;52.10
2008;DHT22;47741;52.306;8.904;2022-07-23T16:59:29;36.60;52.60
2008;DHT22;47741;52.306;8.904;2022-07-23T17:02:15;35.20;52.90
2008;DHT22;47741;52.306;8.904;2022-07-23T17:05:01;34.50;54.00
2008;DHT22;47741;52.306;8.904;2022-07-23T17:07:48;34.90;54.00
2008;DHT22;47741;52.306;8.904;2022-07-23T17:10:34;36.10;53.10
2008;DHT22;47741;52.306;8.904;2022-07-23T17:13:20;36.00;52.90
2008;DHT22;47741;52.306;8.904;2022-07-23T17:16:06;35.20;53.60
2008;DHT22;47741;52.306;8.904;2022-07-23T17:18:55;33.90;54.70
2008;DHT22;47741;52.306;8.904;2022-07-23T17:21:41;34.50;54.60
2008;DHT22;47741;52.306;8.904;2022-07-23T17:24:27;35.20;53.90
2008;DHT22;47741;52.306;8.904;2022-07-23T17:27:15;34.50;53.80
2008;DHT22;47741;52.306;8.904;2022-07-23T17:30:02;33.90;54.90
2008;DHT22;47741;52.306;8.904;2022-07-23T17:32:49;34.10;54.90
2008;DHT22;47741;52.306;8.904;2022-07-23T17:35:36;34.80;54.30
2008;DHT22;47741;52.306;8.904;2022-07-23T17:38:22;35.00;54.00
2008;DHT22;47741;52.306;8.904;2022-07-23T17:41:09;34.80;54.20
2008;DHT22;47741;52.306;8.904;2022-07-23T17:43:55;34.10;54.60
2008;DHT22;47741;52.306;8.904;2022-07-23T17:46:46;33.30;55.00
2008;DHT22;47741;52.306;8.904;2022-07-23T17:49:33;33.40;55.30
2008;DHT22;47741;52.306;8.904;2022-07-23T17:52:19;33.70;55.20
2008;DHT22;47741;52.306;8.904;2022-07-23T17:55:05;34.10;54.70
2008;DHT22;47741;52.306;8.904;2022-07-23T17:57:52;34.50;54.80
2008;DHT22;47741;52.306;8.904;2022-07-23T18:00:41;34.30;54.20
2008;DHT22;47741;52.306;8.904;2022-07-23T18:03:27;33.90;54.50
2008;DHT22;47741;52.306;8.904;2022-07-23T18:06:13;33.30;55.20
2008;DHT22;47741;52.306;8.904;2022-07-23T18:09:03;32.70;55.70
2008;DHT22;47741;52.306;8.904;2022-07-23T18:11:52;32.90;56.50
2008;DHT22;47741;52.306;8.904;2022-07-23T18:14:38;33.20;55.90
2008;DHT22;47741;52.306;8.904;2022-07-23T18:17:24;33.60;55.40
2008;DHT22;47741;52.306;8.904;2022-07-23T18:20:13;33.40;55.50
2008;DHT22;47741;52.306;8.904;2022-07-23T18:23:00;33.70;55.50
2008;DHT22;47741;52.306;8.904;2022-07-23T18:25:48;33.10;55.40